Time;durP1;ratioP1;P1;durP2;ratioP2;P2;SDS_P1;SDS_P2;PMS_P1;PMS_P2;Temp;Humidity;BMP_temperature;BMP_pressure;BME280_temperature;BME280_humidity;BME280_pressure;Samples;Min_cycle;Max_cycle;Signal;HPM_P1;HPM_P2
2023/03/03 00:00:42;;;;;;;23.02;11.30;;;;;;;8.68;68.75;101157.63;4981444;28;20065;-79
2023/03/03 00:03:09;;;;;;;23.05;10.80;;;;;;;8.69;68.39;101143.25;5014263;28;20499;-80
2023/03/03 00:05:35;;;;;;;17.70;11.73;;;;;;;8.59;68.67;101142.97;5032134;28;20031;-79
2023/03/03 00:08:01;;;;;;;29.38;11.75;;;;;;;8.58;68.80;101143.97;5033892;28;20540;-81
2023/03/03 00:10:27;;;;;;;31.85;11.52;;;;;;;8.63;68.08;101139.16;5038021;28;20037;-81
2023/03/03 00:12:52;;;;;;;17.88;11.27;;;;;;;8.72;68.45;101126.97;5035892;28;20547;-80
2023/03/03 00:15:21;;;;;;;23.42;10.77;;;;;;;8.76;67.79;101123.13;5032358;28;20112;-79
2023/03/03 00:17:47;;;;;;;35.88;11.20;;;;;;;8.84;67.83;101120.78;5031843;28;20037;-79
2023/03/03 00:20:22;;;;;;;19.88;11.35;;;;;;;8.73;68.19;101105.41;5032772;28;20029;-79
2023/03/03 00:22:47;;;;;;;19.48;11.23;;;;;;;8.88;67.70;101119.63;5032798;28;20055;-80
2023/03/03 00:25:31;;;;;;;22.80;10.90;;;;;;;8.96;67.53;101119.13;5036772;28;20022;-80
2023/03/03 00:28:26;;;;;;;21.23;11.93;;;;;;;9.03;66.89;101117.72;5055449;28;20026;-79
2023/03/03 00:30:54;;;;;;;35.22;16.20;;;;;;;9.01;66.71;101119.66;5052604;28;20034;-79
2023/03/03 00:33:33;;;;;;;18.48;10.52;;;;;;;9.09;66.44;101111.97;5038323;28;20017;-79
2023/03/03 00:36:37;;;;;;;19.92;9.15;;;;;;;9.18;66.40;101109.50;5032477;28;20051;-81
2023/03/03 00:39:26;;;;;;;19.80;8.95;;;;;;;9.29;65.87;101114.16;4971825;28;20035;-79
2023/03/03 00:41:52;;;;;;;15.63;8.43;;;;;;;9.29;65.35;101106.94;4969556;28;20027;-80
2023/03/03 00:44:41;;;;;;;16.88;9.43;;;;;;;9.32;65.13;101105.03;4969661;28;20057;-80
2023/03/03 00:47:37;;;;;;;19.60;9.02;;;;;;;9.24;65.14;101100.19;4969606;28;20046;-81
2023/03/03 00:50:05;;;;;;;13.90;8.43;;;;;;;9.26;64.87;101095.59;4969860;28;20224;-80
2023/03/03 00:52:34;;;;;;;12.45;8.48;;;;;;;9.19;64.58;101095.16;4980001;28;20031;-81
2023/03/03 00:55:00;;;;;;;14.45;10.07;;;;;;;9.20;65.13;101085.28;4993032;28;20038;-79
2023/03/03 00:57:25;;;;;;;19.30;9.90;;;;;;;9.22;65.15;101088.69;4973581;28;20138;-80
2023/03/03 00:59:51;;;;;;;12.80;8.45;;;;;;;9.19;64.29;101080.84;4988338;28;20054;-79
2023/03/03 01:02:16;;;;;;;14.68;8.95;;;;;;;9.23;64.39;101079.69;4971861;28;20130;-79
2023/03/03 01:04:47;;;;;;;17.77;9.18;;;;;;;9.32;63.96;101089.78;4968657;28;20411;-78
2023/03/03 01:07:13;;;;;;;19.85;8.77;;;;;;;9.17;64.40;101078.25;4972193;28;20035;-79
2023/03/03 01:09:38;;;;;;;22.05;9.95;;;;;;;9.26;64.35;101074.13;4974516;28;20035;-80
2023/03/03 01:12:04;;;;;;;13.30;8.30;;;;;;;9.25;64.00;101073.25;4972950;28;20027;-79
2023/03/03 01:14:30;;;;;;;13.70;8.73;;;;;;;9.14;63.75;101064.22;4968696;28;20054;-80
2023/03/03 01:16:57;;;;;;;17.73;8.98;;;;;;;8.98;64.40;101072.47;5026668;28;20042;-80
2023/03/03 01:19:22;;;;;;;29.50;8.70;;;;;;;8.92;64.48;101069.31;5029880;28;20029;-80
2023/03/03 01:21:47;;;;;;;20.30;8.52;;;;;;;8.95;64.66;101063.75;5029741;28;20353;-79
2023/03/03 01:24:13;;;;;;;12.90;8.30;;;;;;;9.03;64.63;101053.34;5030104;28;20473;-79
2023/03/03 01:26:38;;;;;;;15.07;8.80;;;;;;;9.10;64.59;101052.84;5029972;28;20108;-80
2023/03/03 01:29:04;;;;;;;21.17;9.25;;;;;;;9.19;64.00;101056.72;5029951;28;20037;-80
2023/03/03 01:31:29;;;;;;;19.48;8.75;;;;;;;9.25;63.91;101056.28;5029695;28;20036;-80
2023/03/03 01:33:54;;;;;;;20.02;8.30;;;;;;;9.25;63.80;101067.88;5029779;28;20041;-80
2023/03/03 01:36:24;;;;;;;17.70;8.40;;;;;;;9.29;64.13;101057.81;5029425;28;20033;-79
2023/03/03 01:38:50;;;;;;;15.00;8.93;;;;;;;9.30;64.24;101043.41;5029300;28;20036;-77
2023/03/03 01:41:15;;;;;;;15.57;9.07;;;;;;;9.31;63.88;101050.50;5012001;28;20026;-79
2023/03/03 01:43:46;;;;;;;24.73;11.68;;;;;;;9.30;64.15;101054.13;5028450;28;20031;-79
2023/03/03 01:46:29;;;;;;;16.50;10.25;;;;;;;9.12;64.27;101044.66;5029318;28;20413;-80
2023/03/03 01:49:05;;;;;;;26.17;11.57;;;;;;;9.18;64.86;101042.44;5029189;28;20025;-79
2023/03/03 01:51:58;;;;;;;21.27;10.57;;;;;;;9.18;64.98;101044.25;5029217;28;20048;-79
2023/03/03 01:54:27;;;;;;;29.80;11.77;;;;;;;9.18;64.89;101034.38;4948326;28;20035;-77
2023/03/03 01:56:56;;;;;;;20.35;10.65;;;;;;;9.20;64.87;101034.28;4948673;28;20054;-79
2023/03/03 01:59:29;;;;;;;20.90;10.32;;;;;;;9.28;64.86;101042.66;4948795;28;20306;-79
2023/03/03 02:01:55;;;;;;;28.17;9.98;;;;;;;9.32;64.78;101037.94;4964946;28;20027;-79
2023/03/03 02:04:21;;;;;;;26.63;12.20;;;;;;;9.32;64.68;101046.84;4948640;28;20042;-81
2023/03/03 02:06:53;;;;;;;20.58;10.32;;;;;;;9.37;64.58;101046.50;4951259;28;20035;-78
2023/03/03 02:09:36;;;;;;;;;;;;;;;9.39;64.30;101041.91;4950594;28;20038;-78
2023/03/03 02:12:04;;;;;;;;;;;;;;;9.34;64.60;101050.28;4949008;28;19915;-80
2023/03/03 02:14:29;;;;;;;23.60;10.35;;;;;;;9.36;64.42;101034.91;4948687;28;20374;-80
2023/03/03 02:16:55;;;;;;;20.52;11.15;;;;;;;9.34;64.05;101034.16;4948667;28;20035;-80
2023/03/03 02:19:58;;;;;;;18.02;10.75;;;;;;;9.44;64.23;101043.31;4967862;28;20490;-78
2023/03/03 02:22:37;;;;;;;24.70;11.27;;;;;;;9.37;64.21;101039.31;4891802;29;20067;-80
2023/03/03 02:25:07;;;;;;;18.48;10.73;;;;;;;9.45;64.08;101033.44;4891456;29;20103;-80
2023/03/03 02:27:33;;;;;;;22.15;11.15;;;;;;;9.40;64.00;101033.75;4891589;29;20045;-81
2023/03/03 02:30:08;;;;;;;24.00;13.00;;;;;;;9.43;64.20;101033.53;4892052;29;20181;-81
2023/03/03 02:32:34;;;;;;;17.58;11.20;;;;;;;9.48;64.03;101035.91;4928867;29;20953;-79
2023/03/03 02:34:59;;;;;;;30.10;13.57;;;;;;;9.37;63.56;101038.47;4929163;29;20051;-80
2023/03/03 02:37:25;;;;;;;19.92;10.93;;;;;;;9.30;64.07;101038.03;4929471;29;20122;-77
2023/03/03 02:39:51;;;;;;;20.15;11.93;;;;;;;9.32;64.37;101041.47;4929215;29;20114;-78
2023/03/03 02:42:27;;;;;;;19.40;11.32;;;;;;;9.28;64.09;101034.59;4913730;29;20156;-82
2023/03/03 02:44:53;;;;;;;19.25;10.70;;;;;;;9.29;64.30;101026.44;4929481;29;20046;-78
2023/03/03 02:47:18;;;;;;;19.73;11.43;;;;;;;9.38;63.94;101041.06;4929525;29;20040;-79
2023/03/03 02:49:44;;;;;;;23.25;12.57;;;;;;;9.37;63.86;101033.97;4929396;29;20047;-80
2023/03/03 02:52:11;;;;;;;28.65;13.80;;;;;;;9.35;64.74;101035.91;4928963;29;20437;-79
2023/03/03 02:54:37;;;;;;;24.27;11.75;;;;;;;9.43;64.21;101040.72;4929698;29;20042;-80
2023/03/03 02:57:03;;;;;;;28.48;10.40;;;;;;;9.11;64.38;101041.13;4933522;29;20415;-82
2023/03/03 02:59:29;;;;;;;22.98;11.18;;;;;;;9.22;64.84;101040.41;4991236;28;20132;-79
2023/03/03 03:01:55;;;;;;;20.83;9.75;;;;;;;9.27;64.55;101030.19;5033491;28;20104;-81
2023/03/03 03:04:23;;;;;;;22.63;11.23;;;;;;;9.28;64.26;101023.88;5053841;28;20044;-80
2023/03/03 03:06:48;;;;;;;28.20;11.60;;;;;;;9.36;64.40;101026.84;5066241;28;20082;-82
2023/03/03 03:09:15;;;;;;;24.27;12.48;;;;;;;9.35;64.20;101030.53;5060133;28;20672;-82
2023/03/03 03:11:41;;;;;;;22.05;10.70;;;;;;;9.10;64.28;101015.28;5052426;28;20025;-81
2023/03/03 03:14:08;;;;;;;23.40;11.05;;;;;;;9.12;64.64;101026.75;5052820;28;20397;-85
2023/03/03 03:16:34;;;;;;;18.08;10.43;;;;;;;9.01;64.78;101020.41;5052677;28;20426;-82
2023/03/03 03:19:00;;;;;;;20.50;10.50;;;;;;;9.10;64.61;101020.63;5052467;28;20083;-82
2023/03/03 03:21:25;;;;;;;15.50;9.07;;;;;;;9.08;64.64;101019.03;5052411;28;20140;-83
2023/03/03 03:23:51;;;;;;;17.77;9.80;;;;;;;9.00;64.16;101005.25;5034622;28;20056;-85
2023/03/03 03:26:16;;;;;;;18.15;10.02;;;;;;;8.99;64.55;101009.75;5052340;28;20095;-82
2023/03/03 03:28:42;;;;;;;15.77;9.10;;;;;;;9.04;64.20;101012.16;5033979;28;20028;-83
2023/03/03 03:31:08;;;;;;;22.90;10.45;;;;;;;8.89;64.67;101013.19;5052332;28;20025;-83
2023/03/03 03:33:35;;;;;;;27.77;10.38;;;;;;;8.93;64.68;101012.88;5016369;28;20037;-80
2023/03/03 03:36:01;;;;;;;17.17;9.35;;;;;;;8.96;64.76;101022.56;5052142;28;20036;-81
2023/03/03 03:38:28;;;;;;;16.08;10.00;;;;;;;9.00;64.15;101013.31;5051931;28;20397;-82
2023/03/03 03:40:54;;;;;;;20.08;10.43;;;;;;;9.03;64.02;101007.72;5051816;28;20040;-81
2023/03/03 03:43:19;;;;;;;21.55;9.82;;;;;;;8.94;63.66;101000.31;5051610;28;20496;-81
2023/03/03 03:45:45;;;;;;;21.20;10.90;;;;;;;9.06;64.41;101007.53;5051909;28;20037;-79
2023/03/03 03:48:11;;;;;;;29.90;11.40;;;;;;;9.12;63.87;101007.97;5052341;28;20063;-86
2023/03/03 03:50:37;;;;;;;25.45;11.15;;;;;;;9.17;63.77;101010.34;5014570;28;20049;-84
2023/03/03 03:53:03;;;;;;;19.35;11.02;;;;;;;9.16;64.11;101008.63;5031517;28;20029;-83
2023/03/03 03:55:29;;;;;;;18.90;11.00;;;;;;;9.23;63.38;101005.38;5032312;28;20030;-86
2023/03/03 03:57:56;;;;;;;20.02;9.93;;;;;;;9.10;63.86;101003.69;5034095;28;20033;-82
2023/03/03 04:00:21;;;;;;;18.50;10.13;;;;;;;9.22;63.55;101000.13;5032062;28;20121;-82
2023/03/03 04:02:47;;;;;;;18.55;10.95;;;;;;;9.27;62.86;100995.28;5039940;28;20101;-84
2023/03/03 04:05:12;;;;;;;23.70;11.80;;;;;;;9.32;63.00;100987.81;5054670;28;20033;-80
2023/03/03 04:07:38;;;;;;;17.42;10.48;;;;;;;9.24;63.21;100992.81;5040392;28;20061;-84
2023/03/03 04:10:04;;;;;;;15.50;10.68;;;;;;;9.35;62.97;100992.09;5014302;28;20079;-80
2023/03/03 04:12:34;;;;;;;18.05;11.38;;;;;;;9.28;62.70;100991.66;5031758;28;20065;-81
2023/03/03 04:15:00;;;;;;;19.80;10.98;;;;;;;9.22;62.69;100987.59;5031667;28;20030;-83
2023/03/03 04:17:25;;;;;;;24.10;9.35;;;;;;;9.07;63.05;100974.38;5033015;28;20033;-82
2023/03/03 04:19:52;;;;;;;22.85;10.57;;;;;;;9.12;63.05;100993.69;5032113;28;20029;-82
2023/03/03 04:22:18;;;;;;;22.13;10.65;;;;;;;9.19;63.02;100992.31;5031558;28;20053;-81
2023/03/03 04:24:43;;;;;;;22.58;10.35;;;;;;;9.28;63.12;100991.66;5031076;28;20064;-83
2023/03/03 04:27:08;;;;;;;21.20;10.88;;;;;;;9.20;63.09;100984.13;5031846;28;20060;-81
2023/03/03 04:29:35;;;;;;;21.23;11.35;;;;;;;9.04;63.92;100983.50;5031434;28;20036;-82
2023/03/03 04:32:00;;;;;;;15.25;9.75;;;;;;;9.22;63.78;100992.09;5031007;28;20030;-82
2023/03/03 04:34:26;;;;;;;17.40;10.88;;;;;;;9.04;63.26;100979.94;5031332;28;20156;-81
2023/03/03 04:36:51;;;;;;;18.52;10.98;;;;;;;8.92;63.91;100987.03;5031557;28;20456;-81
2023/03/03 04:39:17;;;;;;;21.50;11.43;;;;;;;8.96;63.97;100980.47;5032623;28;20029;-82
2023/03/03 04:41:42;;;;;;;22.65;10.90;;;;;;;9.07;63.75;100982.41;5037320;28;20052;-81
2023/03/03 04:44:07;;;;;;;24.17;14.25;;;;;;;9.03;63.80;100987.13;5038219;28;20095;-83
2023/03/03 04:46:33;;;;;;;23.40;13.32;;;;;;;9.07;64.06;100988.66;5047894;28;20044;-81
2023/03/03 04:48:58;;;;;;;29.27;11.73;;;;;;;9.07;64.28;100995.84;5055302;28;20025;-81
2023/03/03 04:51:24;;;;;;;26.10;11.70;;;;;;;9.07;64.03;100979.75;5051293;28;20026;-82
2023/03/03 04:53:49;;;;;;;26.98;13.52;;;;;;;9.09;64.31;100992.06;5033962;28;20021;-82
2023/03/03 04:56:15;;;;;;;17.30;10.93;;;;;;;9.10;64.20;100982.22;5036799;28;20036;-82
2023/03/03 04:58:40;;;;;;;22.73;11.82;;;;;;;9.03;64.51;100975.53;5032981;28;20036;-81
2023/03/03 05:01:06;;;;;;;22.75;10.35;;;;;;;9.06;64.07;100986.06;5035710;28;20025;-81
2023/03/03 05:03:31;;;;;;;28.60;12.45;;;;;;;9.10;64.11;100993.81;5042910;28;20476;-81
2023/03/03 05:05:57;;;;;;;22.63;12.32;;;;;;;8.95;64.06;100983.28;5043266;28;20052;-83
2023/03/03 05:08:22;;;;;;;20.90;10.57;;;;;;;8.93;64.79;100993.25;5032274;28;20472;-84
2023/03/03 05:10:54;;;;;;;36.88;12.35;;;;;;;8.80;65.25;100981.66;5030857;28;20040;-87
2023/03/03 05:13:20;;;;;;;25.40;12.98;;;;;;;8.80;65.23;100995.06;5030339;28;20033;-84
2023/03/03 05:15:56;;;;;;;34.17;12.20;;;;;;;8.72;65.62;100998.25;5031294;28;20051;-86
2023/03/03 05:18:25;;;;;;;20.08;12.10;;;;;;;8.62;65.66;100987.28;5021037;28;20026;-84
2023/03/03 05:20:52;;;;;;;27.27;12.13;;;;;;;8.72;65.40;100988.38;5010058;28;20034;-83
2023/03/03 05:23:18;;;;;;;18.50;11.65;;;;;;;8.75;65.65;100993.53;4992764;28;20054;-84
2023/03/03 05:25:45;;;;;;;22.13;11.65;;;;;;;8.81;65.14;100983.38;5009897;28;20037;-86
2023/03/03 05:28:11;;;;;;;21.25;12.15;;;;;;;8.85;64.53;100992.91;5010118;28;20021;-85
2023/03/03 05:30:37;;;;;;;51.38;14.05;;;;;;;8.93;64.27;101006.69;5010385;28;20092;-85
2023/03/03 05:33:04;;;;;;;22.27;12.52;;;;;;;9.02;64.04;100995.31;5009957;28;20129;-84
2023/03/03 05:35:29;;;;;;;21.98;10.98;;;;;;;9.07;63.26;100987.78;5010123;28;20037;-85
2023/03/03 05:37:56;;;;;;;19.10;11.73;;;;;;;9.19;63.12;101008.41;4968593;28;20447;-83
2023/03/03 05:40:22;;;;;;;25.25;13.50;;;;;;;9.12;63.32;100996.38;4969225;28;20043;-85
2023/03/03 05:42:48;;;;;;;29.65;13.25;;;;;;;9.30;63.16;101011.19;4968870;28;20115;-84
2023/03/03 05:45:13;;;;;;;28.30;12.25;;;;;;;9.25;63.23;101003.47;4969378;28;20119;-84
2023/03/03 05:47:39;;;;;;;33.60;11.85;;;;;;;9.29;63.04;100993.38;4971064;28;20039;-84
2023/03/03 05:50:04;;;;;;;24.45;12.15;;;;;;;9.42;63.19;101007.63;4954435;28;20518;-85
2023/03/03 05:52:30;;;;;;;21.95;11.85;;;;;;;9.46;62.47;101014.53;4969725;28;20047;-85
2023/03/03 05:54:56;;;;;;;31.63;12.85;;;;;;;9.52;62.66;101011.41;4969486;28;20074;-85
2023/03/03 05:57:22;;;;;;;19.65;12.38;;;;;;;9.56;62.58;101007.53;4969447;28;20049;-86
2023/03/03 05:59:47;;;;;;;23.58;10.57;;;;;;;9.54;62.08;101008.63;4991673;28;20058;-83
2023/03/03 06:02:13;;;;;;;18.38;11.38;;;;;;;9.61;62.11;101010.75;5006758;28;20033;-83
2023/03/03 06:04:38;;;;;;;24.20;12.07;;;;;;;9.66;61.27;101015.81;5000028;28;20038;-86
2023/03/03 06:07:04;;;;;;;23.17;14.52;;;;;;;9.65;61.53;101012.25;4989647;28;20038;-83
2023/03/03 06:09:31;;;;;;;36.17;13.45;;;;;;;9.68;61.65;101000.44;5020468;28;20489;-85
2023/03/03 06:11:56;;;;;;;153.50;23.73;;;;;;;9.76;61.31;101004.28;5031174;28;20022;-84
2023/03/03 06:14:22;;;;;;;21.90;12.30;;;;;;;9.71;61.42;101005.56;5029936;28;20025;-86
2023/03/03 06:16:47;;;;;;;26.63;12.48;;;;;;;9.72;61.19;101001.94;5030203;28;20060;-85
2023/03/03 06:19:14;;;;;;;39.20;13.88;;;;;;;9.70;60.91;100995.78;5030229;28;20080;-83
2023/03/03 06:21:40;;;;;;;38.85;14.50;;;;;;;9.78;61.19;101002.31;5030152;28;20027;-85
2023/03/03 06:24:05;;;;;;;21.08;12.07;;;;;;;9.85;61.03;101002.75;5030396;28;20034;-85
2023/03/03 06:26:32;;;;;;;23.85;11.48;;;;;;;9.90;60.89;101005.97;5030330;28;20017;-86
2023/03/03 06:28:57;;;;;;;23.58;12.40;;;;;;;9.94;60.61;101006.63;5032912;28;20053;-84
2023/03/03 06:31:23;;;;;;;30.75;13.52;;;;;;;9.93;60.84;101002.19;5034358;28;20669;-86
2023/03/03 06:33:50;;;;;;;39.30;13.38;;;;;;;9.99;60.46;101004.44;5034103;28;20037;-84
2023/03/03 06:36:16;;;;;;;51.97;14.82;;;;;;;9.92;60.11;100995.97;5034294;28;20025;-86
2023/03/03 06:38:41;;;;;;;43.97;14.52;;;;;;;9.92;60.14;101000.47;5034599;28;20037;-83
2023/03/03 06:41:07;;;;;;;41.35;14.45;;;;;;;10.01;60.22;101010.56;5034153;28;20029;-83
2023/03/03 06:43:35;;;;;;;59.08;13.40;;;;;;;10.06;59.91;101011.94;5033634;28;20504;-86
2023/03/03 06:46:02;;;;;;;32.28;13.05;;;;;;;10.09;60.22;101005.50;5034644;28;20073;-85
2023/03/03 06:48:29;;;;;;;92.50;16.48;;;;;;;10.08;60.09;101009.16;5031553;28;20041;-82
2023/03/03 06:50:55;;;;;;;32.50;15.15;;;;;;;10.06;59.81;101005.72;5033673;28;20022;-84
2023/03/03 06:53:21;;;;;;;42.28;15.30;;;;;;;10.01;59.88;100999.81;5034097;28;20060;-86
2023/03/03 06:55:46;;;;;;;47.55;14.30;;;;;;;10.16;59.62;101009.47;5034057;28;20029;-86
2023/03/03 06:58:20;;;;;;;28.38;11.55;;;;;;;10.04;58.72;101010.31;5048658;28;20041;-84
2023/03/03 07:00:54;;;;;;;50.50;14.93;;;;;;;9.98;59.14;101008.09;5054455;28;20044;-82
2023/03/03 07:03:27;;;;;;;29.02;13.00;;;;;;;10.00;58.70;101007.00;5020841;28;20732;-85
2023/03/03 07:05:52;;;;;;;37.22;13.82;;;;;;;10.09;58.73;101005.50;5034509;28;20148;-85
2023/03/03 07:08:21;;;;;;;54.72;16.35;;;;;;;10.11;58.73;100998.16;5033840;28;20022;-86
2023/03/03 07:10:48;;;;;;;22.30;12.70;;;;;;;10.20;58.32;101010.97;5033656;28;20087;-85
2023/03/03 07:13:25;;;;;;;38.00;15.23;;;;;;;10.19;58.16;101012.78;5033261;28;20057;-84
2023/03/03 07:15:57;;;;;;;80.22;16.88;;;;;;;10.26;58.28;100999.75;5034568;28;20029;-85
2023/03/03 07:18:31;;;;;;;38.72;13.80;;;;;;;10.29;57.83;101005.78;5048200;28;20021;-83
2023/03/03 07:20:57;;;;;;;51.30;13.18;;;;;;;10.29;58.17;101003.09;5051969;28;20057;-86
2023/03/03 07:23:42;;;;;;;41.85;13.82;;;;;;;10.29;57.77;100991.47;5049168;28;20018;-83
2023/03/03 07:26:16;;;;;;;28.58;14.27;;;;;;;10.29;57.67;100991.47;5042228;28;20032;-83
2023/03/03 07:29:00;;;;;;;37.35;15.63;;;;;;;10.26;57.49;100994.38;5032722;28;20025;-85
2023/03/03 07:31:38;;;;;;;24.85;13.05;;;;;;;10.22;58.18;100995.56;5032883;28;20481;-84
2023/03/03 07:34:39;;;;;;;32.80;13.95;;;;;;;10.20;58.03;101000.22;5032362;28;20086;-85
2023/03/03 07:37:34;;;;;;;34.22;14.23;;;;;;;10.21;58.68;100986.66;5029933;28;20033;-86
2023/03/03 07:40:20;;;;;;;67.72;16.92;;;;;;;10.32;58.44;100991.22;5008636;28;20034;-84
2023/03/03 07:42:45;;;;;;;51.50;15.65;;;;;;;10.35;58.25;100991.00;5007464;28;20084;-85
2023/03/03 07:45:31;;;;;;;28.73;13.65;;;;;;;10.42;57.58;100988.72;5000820;28;20517;-86
2023/03/03 07:48:41;;;;;;;29.27;12.85;;;;;;;10.45;56.82;100983.97;5010560;28;20548;-86
2023/03/03 07:51:42;;;;;;;37.35;13.13;;;;;;;10.46;56.92;100977.59;4971786;28;20042;-85
2023/03/03 07:54:25;;;;;;;58.47;13.45;;;;;;;10.34;56.95;100963.25;4914584;29;20040;-86
2023/03/03 07:56:51;;;;;;;50.90;13.75;;;;;;;10.51;56.91;100974.59;4926114;29;20051;-82
2023/03/03 07:59:24;;;;;;;38.67;13.65;;;;;;;10.62;56.95;100969.22;4928852;29;20060;-85
2023/03/03 08:01:54;;;;;;;50.65;15.02;;;;;;;10.58;56.31;100962.41;4918462;29;20039;-82
2023/03/03 08:04:24;;;;;;;62.53;17.08;;;;;;;10.49;56.85;100965.78;4915477;29;20120;-85
2023/03/03 08:06:59;;;;;;;45.60;13.48;;;;;;;10.65;56.37;100960.94;4915288;29;20040;-84
2023/03/03 08:09:33;;;;;;;25.58;10.63;;;;;;;10.72;56.75;100964.88;4913679;29;20032;-83
2023/03/03 08:12:15;;;;;;;42.00;15.20;;;;;;;10.73;56.54;100970.13;4913678;29;20072;-85
2023/03/03 08:14:40;;;;;;;28.42;13.15;;;;;;;10.75;56.56;100964.66;4913145;29;20472;-84
2023/03/03 08:17:34;;;;;;;23.00;13.02;;;;;;;10.71;56.49;100960.47;4913169;29;20039;-84
2023/03/03 08:20:00;;;;;;;37.97;13.68;;;;;;;10.75;56.58;100943.97;4912882;29;20055;-85
2023/03/03 08:22:36;;;;;;;35.88;14.57;;;;;;;10.94;56.18;100951.50;4912875;29;20040;-84
2023/03/03 08:25:02;;;;;;;33.80;14.40;;;;;;;10.84;56.17;100963.94;4913198;29;20036;-85
2023/03/03 08:27:28;;;;;;;30.98;12.93;;;;;;;10.82;55.13;100953.28;4966954;28;20046;-85
2023/03/03 08:29:53;;;;;;;20.13;12.15;;;;;;;10.63;56.03;100941.38;5010191;28;20037;-85
2023/03/03 08:32:18;;;;;;;23.10;12.43;;;;;;;10.76;55.68;100961.00;5032271;28;20036;-83
2023/03/03 08:34:44;;;;;;;21.63;13.13;;;;;;;10.52;56.08;100952.94;5033835;28;20041;-85
2023/03/03 08:37:10;;;;;;;25.60;13.43;;;;;;;10.26;55.98;100932.56;5032664;28;20032;-84
2023/03/03 08:39:35;;;;;;;36.22;13.85;;;;;;;10.58;56.41;100955.16;5032055;28;20029;-85
2023/03/03 08:42:00;;;;;;;28.55;13.15;;;;;;;10.77;56.39;100960.00;5032190;28;20041;-86
2023/03/03 08:44:26;;;;;;;29.55;13.50;;;;;;;10.97;55.70;100955.78;5031925;28;20037;-85
2023/03/03 08:46:51;;;;;;;22.48;12.43;;;;;;;11.08;55.85;100953.09;5032194;28;20408;-86
2023/03/03 08:49:17;;;;;;;28.73;12.48;;;;;;;11.14;55.07;100966.06;5032137;28;20036;-84
2023/03/03 08:51:43;;;;;;;34.92;10.75;;;;;;;11.15;54.60;100965.97;5013219;28;20025;-85
2023/03/03 08:54:08;;;;;;;29.45;11.65;;;;;;;11.21;54.71;100954.72;5039556;28;20029;-82
2023/03/03 08:56:34;;;;;;;23.15;12.45;;;;;;;11.22;54.38;100953.72;5051220;28;20026;-83
2023/03/03 08:58:59;;;;;;;31.33;12.75;;;;;;;11.40;54.10;100970.28;5043928;28;20144;-84
2023/03/03 09:01:24;;;;;;;33.25;12.93;;;;;;;11.53;54.41;100971.00;5032646;28;20452;-84
2023/03/03 09:03:50;;;;;;;28.58;12.10;;;;;;;11.43;54.71;100964.66;5035160;28;20037;-84
2023/03/03 09:06:15;;;;;;;24.02;12.20;;;;;;;11.17;56.41;100964.00;4984890;28;20037;-85
2023/03/03 09:08:41;;;;;;;24.33;12.25;;;;;;;11.00;56.41;100958.22;5042935;28;20026;-80
2023/03/03 09:11:13;;;;;;;21.85;11.30;;;;;;;10.98;57.53;100957.50;5056138;28;20025;-80
2023/03/03 09:13:39;;;;;;;;;;;;;;;11.08;57.15;100953.09;5056128;28;20029;-82
2023/03/03 09:16:14;;;;;;;100.60;19.17;;;;;;;10.84;57.39;100950.47;5054262;28;19928;-84
2023/03/03 09:18:41;;;;;;;22.33;11.77;;;;;;;10.82;57.93;100953.28;5052355;28;20031;-86
2023/03/03 09:21:18;;;;;;;29.67;12.15;;;;;;;10.67;57.86;100930.25;5053060;28;20093;-84
2023/03/03 09:24:04;;;;;;;38.70;13.13;;;;;;;10.63;57.81;100952.13;5033919;28;20053;-84
2023/03/03 09:26:43;;;;;;;31.50;11.80;;;;;;;10.63;57.72;100953.00;5031038;28;20029;-85
2023/03/03 09:29:22;;;;;;;18.67;10.77;;;;;;;10.68;57.68;100947.25;5030014;28;20076;-85
2023/03/03 09:31:53;;;;;;;27.33;11.02;;;;;;;10.61;57.67;100940.66;5015787;28;20033;-83
2023/03/03 09:34:41;;;;;;;64.25;14.13;;;;;;;10.64;58.40;100937.72;5031306;28;20034;-82
2023/03/03 09:37:22;;;;;;;18.70;9.98;;;;;;;10.80;56.28;100933.72;5029978;28;20168;-86
2023/03/03 09:39:50;;;;;;;32.08;10.10;;;;;;;10.77;57.17;100933.09;5031882;28;20040;-84
2023/03/03 09:42:37;;;;;;;31.00;12.25;;;;;;;10.83;57.14;100925.41;5036738;28;20026;-85
2023/03/03 09:45:11;;;;;;;27.52;9.70;;;;;;;10.71;57.67;100930.88;5036471;28;20063;-87
2023/03/03 09:48:05;;;;;;;23.23;9.85;;;;;;;10.61;57.27;100936.09;5033730;28;20112;-86
2023/03/03 09:50:59;;;;;;;31.98;10.52;;;;;;;10.66;57.49;100930.38;5032372;28;20029;-82
2023/03/03 09:53:45;;;;;;;18.92;9.70;;;;;;;10.56;57.22;100915.91;5047307;28;20022;-83
2023/03/03 09:56:33;;;;;;;64.13;13.02;;;;;;;10.52;57.70;100919.84;5050420;28;20037;-81
2023/03/03 09:59:04;;;;;;;19.90;9.93;;;;;;;10.34;58.31;100903.25;5037303;28;20092;-85
2023/03/03 10:01:39;;;;;;;23.50;10.13;;;;;;;10.52;58.60;100906.38;5035523;28;20247;-84
2023/03/03 10:04:24;;;;;;;24.25;9.27;;;;;;;10.53;57.93;100906.25;5031894;28;20033;-84
2023/03/03 10:06:55;;;;;;;29.27;9.27;;;;;;;10.55;58.28;100901.59;5014595;28;20029;-85
2023/03/03 10:09:45;;;;;;;21.42;9.23;;;;;;;10.71;57.76;100896.75;5032542;28;20075;-84
2023/03/03 10:12:24;;;;;;;23.10;8.73;;;;;;;10.81;57.18;100886.16;5031042;28;20033;-84
2023/03/03 10:15:16;;;;;;;48.92;9.70;;;;;;;10.86;57.30;100892.00;5015686;28;20071;-85
2023/03/03 10:17:54;;;;;;;28.35;11.15;;;;;;;10.90;57.07;100886.28;5032417;28;20087;-83
2023/03/03 10:20:34;;;;;;;28.10;10.18;;;;;;;10.85;57.22;100882.25;5032643;28;20033;-84
2023/03/03 10:23:14;;;;;;;21.77;9.00;;;;;;;10.76;56.85;100875.72;5032029;28;20500;-85
2023/03/03 10:25:53;;;;;;;15.93;7.95;;;;;;;10.88;57.09;100872.09;4997150;28;20037;-84
2023/03/03 10:29:09;;;;;;;55.63;10.95;;;;;;;11.11;57.55;100864.03;5032958;28;20037;-86
2023/03/03 10:32:00;;;;;;;42.78;12.25;;;;;;;11.47;57.12;100866.44;5032831;28;20024;-84
2023/03/03 10:34:51;;;;;;;24.92;9.20;;;;;;;11.36;56.98;100861.94;5014523;28;20053;-85
2023/03/03 10:37:57;;;;;;;39.25;9.88;;;;;;;11.48;56.61;100868.16;5032790;28;20136;-84
2023/03/03 10:40:42;;;;;;;39.45;10.13;;;;;;;11.45;56.11;100865.72;4951471;29;20046;-83
2023/03/03 10:43:13;;;;;;;35.85;10.02;;;;;;;11.67;56.54;100859.44;4952079;29;20043;-84
2023/03/03 10:46:09;;;;;;;16.87;7.97;;;;;;;11.78;55.87;100862.97;4951785;29;20588;-84
2023/03/03 10:49:12;;;;;;;43.53;9.65;;;;;;;11.85;55.79;100858.81;4952688;29;20050;-86
2023/03/03 10:51:57;;;;;;;;;;;;;;;11.91;56.18;100855.59;4961625;28;20063;-83
2023/03/03 10:54:49;;;;;;;19.55;8.57;;;;;;;11.92;55.54;100854.63;4966232;29;19906;-82
2023/03/03 10:57:35;;;;;;;;;;;;;;;11.81;55.11;100846.56;4956613;29;20035;-84
2023/03/03 11:00:37;;;;;;;26.52;9.32;;;;;;;11.87;55.78;100845.19;4952975;28;19929;-85
2023/03/03 11:03:36;;;;;;;88.50;16.48;;;;;;;11.83;56.37;100849.97;4952506;28;20150;-83
2023/03/03 11:06:15;;;;;;;34.65;9.90;;;;;;;11.75;56.47;100841.69;4952224;28;20082;-84
2023/03/03 11:08:44;;;;;;;20.42;8.98;;;;;;;11.54;56.41;100837.16;4954598;28;20036;-86
2023/03/03 11:11:27;;;;;;;37.92;13.85;;;;;;;11.63;56.54;100825.63;4953838;28;20510;-87
2023/03/03 11:14:13;;;;;;;22.02;9.88;;;;;;;11.48;56.25;100817.00;4972615;28;20041;-87
2023/03/03 11:16:59;;;;;;;35.97;10.00;;;;;;;11.46;56.90;100810.88;5015357;28;20042;-86
2023/03/03 11:19:28;;;;;;;25.67;8.43;;;;;;;11.46;56.46;100808.19;4992975;28;20038;-85
2023/03/03 11:22:25;;;;;;;26.17;8.75;;;;;;;11.32;56.32;100803.06;4976991;28;20487;-86
2023/03/03 11:25:15;;;;;;;15.30;7.97;;;;;;;10.96;57.51;100800.66;4897422;29;20055;-87
2023/03/03 11:27:58;;;;;;;46.38;12.25;;;;;;;10.89;57.88;100782.31;4882135;29;20063;-88
2023/03/03 11:30:44;;;;;;;204.68;27.83;;;;;;;10.81;58.05;100783.91;4882875;29;20048;-81
2023/03/03 11:33:17;;;;;;;25.40;9.85;;;;;;;10.87;58.65;100783.41;4899529;29;20040;-88
2023/03/03 11:36:04;;;;;;;28.02;9.70;;;;;;;10.95;58.52;100782.81;4896661;29;20032;-86
2023/03/03 11:38:57;;;;;;;19.67;8.57;;;;;;;11.14;58.21;100774.94;4870403;29;20527;-88